Terminal Aerodrome Forecast
Issued by NWS

Home | Current Version | Previous Version | Text Only | Print | Product List | Glossary On
Versions: 1 2 3 4 5 6 7 8 9 10 11 12 13 14
000
FTAK31 PAJN 180533
TAFAKT
TAF
PAKT 180533Z 1806/1906 14012KT 6SM -SHRA SCT015 BKN025 OVC035
     FM181800 13008KT P6SM -SHRA SCT025 OVC040
      AMD LTD TO CLD VIS AND WIND 1806/1815=

USA.gov is the U.S. government's official web portal to all federal, state and local government web resources and services.